createdAt,value
2018-09-08T00:00:14.451Z,97255
2018-09-08T00:01:30.447Z,97261
2018-09-08T00:02:46.360Z,97255
2018-09-08T00:04:02.292Z,97254
2018-09-08T00:05:18.365Z,97253
2018-09-08T00:06:34.521Z,97256
2018-09-08T00:07:50.396Z,97252
2018-09-08T00:09:06.404Z,97260
2018-09-08T00:10:22.357Z,97261
2018-09-08T00:11:38.324Z,97258
2018-09-08T00:12:54.259Z,97261
2018-09-08T00:14:10.313Z,97263
2018-09-08T00:17:00.262Z,97266
2018-09-08T00:18:16.191Z,97268
2018-09-08T00:19:32.099Z,97271
2018-09-08T00:20:48.104Z,97271
2018-09-08T00:22:04.102Z,97269
2018-09-08T00:23:20.065Z,97264
2018-09-08T00:24:36.012Z,97269
2018-09-08T00:25:52.156Z,97266
2018-09-08T00:28:42.016Z,97270
2018-09-08T00:29:58.008Z,97268
2018-09-08T00:31:13.930Z,97268
2018-09-08T00:32:29.981Z,97268
2018-09-08T00:34:03.814Z,97267
2018-09-08T00:35:19.744Z,97265
2018-09-08T00:36:35.615Z,97266
2018-09-08T00:37:51.589Z,97267
2018-09-08T00:39:26.395Z,97271
2018-09-08T00:40:42.294Z,97273
2018-09-08T00:41:58.268Z,97273
2018-09-08T00:43:32.084Z,97271
2018-09-08T00:44:48.061Z,97271
2018-09-08T00:46:04.043Z,97271
2018-09-08T00:47:20.049Z,97273
2018-09-08T00:48:36.008Z,97271
2018-09-08T00:49:51.975Z,97270
2018-09-08T00:51:07.953Z,97271
2018-09-08T00:52:23.896Z,97268
2018-09-08T00:53:40.116Z,97279
2018-09-08T00:54:56.019Z,97277
2018-09-08T00:56:11.968Z,97278
2018-09-08T00:57:47.123Z,97282
2018-09-08T00:59:03.082Z,97281
2018-09-08T01:00:19.213Z,97279
2018-09-08T01:01:35.287Z,97281
2018-09-08T01:02:51.279Z,97278
2018-09-08T01:04:07.211Z,97282
2018-09-08T01:05:23.139Z,97281
2018-09-08T01:06:39.236Z,97282
2018-09-08T01:07:55.285Z,97286
2018-09-08T01:09:11.378Z,97290
2018-09-08T01:10:27.340Z,97286
2018-09-08T01:11:43.402Z,97291
2018-09-08T01:16:07.204Z,97293
2018-09-08T01:17:42.169Z,97299
2018-09-08T01:18:58.331Z,97296
2018-09-08T01:20:14.319Z,97296
2018-09-08T01:21:30.286Z,97302
2018-09-08T01:23:04.214Z,97304
2018-09-08T01:24:20.407Z,97304
2018-09-08T01:25:36.310Z,97305
2018-09-08T01:26:52.325Z,97303
2018-09-08T01:28:08.318Z,97302
2018-09-08T01:29:24.345Z,97303
2018-09-08T01:30:40.468Z,97306
2018-09-08T01:31:56.396Z,97306
2018-09-08T01:33:12.386Z,97310
2018-09-08T01:34:28.437Z,97309
2018-09-08T01:35:44.400Z,97310
2018-09-08T01:37:00.344Z,97309
2018-09-08T01:38:16.306Z,97313
2018-09-08T01:39:32.416Z,97311
2018-09-08T01:40:48.392Z,97312
2018-09-08T01:42:04.307Z,97314
2018-09-08T01:43:20.270Z,97315
2018-09-08T01:44:36.291Z,97317
2018-09-08T01:45:52.220Z,97316
2018-09-08T01:47:27.041Z,97318
2018-09-08T01:48:42.977Z,97316
2018-09-08T01:49:59.072Z,97315
2018-09-08T01:51:15.138Z,97320
2018-09-08T01:52:31.132Z,97317
2018-09-08T01:53:47.056Z,97322
2018-09-08T01:55:03.127Z,97324
2018-09-08T01:56:19.220Z,97327
2018-09-08T01:57:35.218Z,97329
2018-09-08T01:58:51.268Z,97326
2018-09-08T02:00:07.200Z,97325
2018-09-08T02:01:23.196Z,97325
2018-09-08T02:02:39.289Z,97317
2018-09-08T02:04:13.284Z,97317
2018-09-08T02:05:29.341Z,97316
2018-09-08T02:06:45.330Z,97312
2018-09-08T02:08:01.311Z,97311
2018-09-08T02:09:17.318Z,97314
2018-09-08T02:10:33.320Z,97312
2018-09-08T02:11:49.228Z,97315
2018-09-08T02:13:23.046Z,97316
2018-09-08T02:14:38.978Z,97324
2018-09-08T02:15:55.075Z,97320
2018-09-08T02:17:11.026Z,97324
2018-09-08T02:18:26.938Z,97320
2018-09-08T02:19:42.925Z,97320
2018-09-08T02:20:58.998Z,97317
2018-09-08T02:22:15.013Z,97320
2018-09-08T02:23:30.943Z,97321
2018-09-08T02:24:47.880Z,97321
2018-09-08T02:26:04.035Z,97322
2018-09-08T02:27:19.996Z,97324
2018-09-08T02:28:35.915Z,97325
2018-09-08T02:29:51.899Z,97324
2018-09-08T02:31:07.880Z,97326
2018-09-08T02:32:23.828Z,97325
2018-09-08T02:33:39.739Z,97324
2018-09-08T02:34:55.763Z,97325
2018-09-08T02:36:11.953Z,97320
2018-09-08T02:37:27.845Z,97326
2018-09-08T02:38:43.777Z,97326
2018-09-08T02:40:17.605Z,97324
2018-09-08T02:41:33.607Z,97325
2018-09-08T02:42:49.634Z,97329
2018-09-08T02:44:05.590Z,97325
2018-09-08T02:45:21.573Z,97328
2018-09-08T02:46:37.553Z,97325
2018-09-08T02:47:53.766Z,97328
2018-09-08T02:49:09.765Z,97326
2018-09-08T02:50:25.703Z,97329
2018-09-08T02:51:41.724Z,97324
2018-09-08T02:52:57.801Z,97326
2018-09-08T02:54:13.782Z,97331
2018-09-08T02:55:29.674Z,97328
2018-09-08T02:56:45.655Z,97333
2018-09-08T02:58:01.655Z,97337
2018-09-08T02:59:35.639Z,97335
2018-09-08T03:01:09.476Z,97338
2018-09-08T03:02:43.579Z,97336
2018-09-08T03:03:59.519Z,97335
2018-09-08T03:05:15.514Z,97337
2018-09-08T03:06:31.501Z,97333
2018-09-08T03:07:47.430Z,97332
2018-09-08T03:09:03.705Z,97332
2018-09-08T03:10:19.676Z,97329
2018-09-08T03:11:35.628Z,97331
2018-09-08T03:12:51.635Z,97330
2018-09-08T03:14:07.581Z,97335
2018-09-08T03:15:42.579Z,97333
2018-09-08T03:16:58.677Z,97331
2018-09-08T03:18:14.794Z,97332
2018-09-08T03:19:48.648Z,97332
2018-09-08T03:21:04.585Z,97331
2018-09-08T03:22:20.615Z,97340
2018-09-08T03:23:36.563Z,97336
2018-09-08T03:24:52.572Z,97334
2018-09-08T03:26:08.516Z,97338
2018-09-08T03:27:24.465Z,97344
2018-09-08T03:28:40.496Z,97346
2018-09-08T03:29:56.560Z,97343
2018-09-08T03:31:12.488Z,97345
2018-09-08T03:32:28.380Z,97341
2018-09-08T03:33:44.341Z,97343
2018-09-08T03:35:00.329Z,97340
2018-09-08T03:36:16.239Z,97339
2018-09-08T03:37:32.200Z,97340
2018-09-08T03:38:48.251Z,97343
2018-09-08T03:40:04.243Z,97341
2018-09-08T03:41:20.204Z,97341
2018-09-08T03:42:36.187Z,97342
2018-09-08T03:43:52.273Z,97339
2018-09-08T03:45:08.250Z,97339
2018-09-08T03:46:24.190Z,97338
2018-09-08T03:47:40.107Z,97337
2018-09-08T03:48:56.064Z,97336
2018-09-08T03:50:11.990Z,97337
2018-09-08T03:51:46.017Z,97337
2018-09-08T03:53:01.942Z,97337
2018-09-08T03:54:35.933Z,97337
2018-09-08T03:55:51.849Z,97333
2018-09-08T03:57:07.861Z,97333
2018-09-08T03:58:23.859Z,97334
2018-09-08T03:59:39.806Z,97329
2018-09-08T04:00:55.786Z,97329
2018-09-08T04:02:11.854Z,97333
2018-09-08T04:03:27.880Z,97331
2018-09-08T04:04:43.975Z,97337
2018-09-08T04:05:59.893Z,97339
2018-09-08T04:07:15.870Z,97340
2018-09-08T04:08:31.807Z,97338
2018-09-08T04:09:47.920Z,97340
2018-09-08T04:11:03.838Z,97338
2018-09-08T04:12:19.942Z,97339
2018-09-08T04:13:35.976Z,97337
2018-09-08T04:14:52.163Z,97340
2018-09-08T04:16:08.094Z,97333
2018-09-08T04:17:24.051Z,97336
2018-09-08T04:18:40.060Z,97334
2018-09-08T04:19:56.084Z,97338
2018-09-08T04:21:12.073Z,97342
2018-09-08T04:22:28.035Z,97337
2018-09-08T04:23:43.985Z,97340
2018-09-08T04:25:00.088Z,97342
2018-09-08T04:26:16.056Z,97344
2018-09-08T04:27:31.984Z,97345
2018-09-08T04:28:48.063Z,97343
2018-09-08T04:30:04.006Z,97348
2018-09-08T04:31:20.159Z,97346
2018-09-08T04:32:36.194Z,97344
2018-09-08T04:33:52.124Z,97346
2018-09-08T04:35:08.137Z,97348
2018-09-08T04:36:24.133Z,97346
2018-09-08T04:37:40.028Z,97349
2018-09-08T04:38:55.962Z,97347
2018-09-08T04:40:11.997Z,97355
2018-09-08T04:41:27.951Z,97354
2018-09-08T04:42:43.884Z,97355
2018-09-08T04:43:59.930Z,97353
2018-09-08T04:45:15.893Z,97351
2018-09-08T04:46:31.871Z,97357
2018-09-08T04:47:47.971Z,97351
2018-09-08T04:49:03.937Z,97353
2018-09-08T04:50:19.932Z,97350
2018-09-08T04:51:35.908Z,97348
2018-09-08T04:52:51.837Z,97353
2018-09-08T04:54:07.966Z,97355
2018-09-08T04:55:23.997Z,97351
2018-09-08T04:56:39.998Z,97355
2018-09-08T04:57:55.921Z,97355
2018-09-08T04:59:11.835Z,97361
2018-09-08T05:00:27.762Z,97354
2018-09-08T05:01:43.849Z,97360
2018-09-08T05:02:59.824Z,97359
2018-09-08T05:05:49.779Z,97361
2018-09-08T05:07:05.810Z,97363
2018-09-08T05:08:21.858Z,97360
2018-09-08T05:09:37.831Z,97357
2018-09-08T05:10:53.816Z,97354
2018-09-08T05:12:09.887Z,97358
2018-09-08T05:13:25.889Z,97356
2018-09-08T05:14:41.918Z,97352
2018-09-08T05:15:57.877Z,97354
2018-09-08T05:17:14.031Z,97349
2018-09-08T05:18:30.103Z,97357
2018-09-08T05:20:03.946Z,97353
2018-09-08T05:21:20.062Z,97355
2018-09-08T05:22:36.104Z,97359
2018-09-08T05:23:52.068Z,97355
2018-09-08T05:25:08.036Z,97355
2018-09-08T05:26:23.967Z,97353
2018-09-08T05:27:39.966Z,97354
2018-09-08T05:28:55.964Z,97358
2018-09-08T05:30:11.962Z,97354
2018-09-08T05:31:28.079Z,97355
2018-09-08T05:33:01.957Z,97353
2018-09-08T05:34:18.055Z,97352
2018-09-08T05:35:34.161Z,97353
2018-09-08T05:36:50.205Z,97356
2018-09-08T05:38:06.229Z,97358
2018-09-08T05:39:22.309Z,97360
2018-09-08T05:40:38.445Z,97359
2018-09-08T05:41:55.625Z,97358
2018-09-08T05:43:29.507Z,97362
2018-09-08T05:44:45.593Z,97360
2018-09-08T05:46:01.577Z,97362
2018-09-08T05:47:17.523Z,97363
2018-09-08T05:48:33.639Z,97364
2018-09-08T05:49:49.635Z,97362
2018-09-08T05:51:05.659Z,97364
2018-09-08T05:52:21.668Z,97370
2018-09-08T05:53:37.649Z,97366
2018-09-08T05:54:53.700Z,97370
2018-09-08T05:56:09.623Z,97369
2018-09-08T05:57:25.637Z,97365
2018-09-08T06:01:38.245Z,97371
2018-09-08T06:02:54.325Z,97372
2018-09-08T06:04:10.254Z,97372
2018-09-08T06:05:43.105Z,97369
2018-09-08T06:06:59.037Z,97378
2018-09-08T06:08:15.072Z,97373
2018-09-08T06:09:31.127Z,97380
2018-09-08T06:11:04.986Z,97380
2018-09-08T06:12:20.926Z,97378
2018-09-08T06:13:36.876Z,97382
2018-09-08T06:14:52.732Z,97383
2018-09-08T06:16:08.806Z,97382
2018-09-08T06:17:24.779Z,97386
2018-09-08T06:18:40.910Z,97385
2018-09-08T06:19:56.925Z,97383
2018-09-08T06:21:12.909Z,97382
2018-09-08T06:22:28.840Z,97385
2018-09-08T06:24:02.837Z,97385
2018-09-08T06:26:52.617Z,97390
2018-09-08T06:28:08.573Z,97379
2018-09-08T06:29:24.638Z,97389
2018-09-08T06:30:40.561Z,97389
2018-09-08T06:31:56.557Z,97390
2018-09-08T06:33:12.532Z,97393
2018-09-08T06:34:28.535Z,97392
2018-09-08T06:35:44.437Z,97392
2018-09-08T06:37:00.494Z,97392
2018-09-08T06:38:16.515Z,97396
2018-09-08T06:39:32.532Z,97389
2018-09-08T06:40:48.549Z,97393
2018-09-08T06:42:23.464Z,97387
2018-09-08T06:43:39.380Z,97389
2018-09-08T06:44:55.411Z,97388
2018-09-08T06:46:29.318Z,97388
2018-09-08T06:47:45.292Z,97389
2018-09-08T06:49:01.285Z,97389
2018-09-08T06:50:17.324Z,97391
2018-09-08T06:51:33.355Z,97393
2018-09-08T06:52:49.386Z,97396
2018-09-08T06:54:05.350Z,97395
2018-09-08T06:56:55.141Z,97391
2018-09-08T06:58:11.256Z,97392
2018-09-08T06:59:27.240Z,97391
2018-09-08T07:00:43.211Z,97389
2018-09-08T07:02:18.073Z,97390
2018-09-08T07:03:34.042Z,97388
2018-09-08T07:04:50.096Z,97391
2018-09-08T07:06:06.165Z,97390
2018-09-08T07:07:22.188Z,97390
2018-09-08T07:08:39.150Z,97397
2018-09-08T07:09:55.094Z,97397
2018-09-08T07:11:11.028Z,97394
2018-09-08T07:12:27.017Z,97396
2018-09-08T07:13:42.923Z,97396
2018-09-08T07:14:59.029Z,97397
2018-09-08T07:16:15.146Z,97396
2018-09-08T07:17:31.148Z,97395
2018-09-08T07:19:06.072Z,97393
2018-09-08T07:20:22.120Z,97399
2018-09-08T07:21:55.967Z,97401
2018-09-08T07:23:12.023Z,97404
2018-09-08T07:24:45.968Z,97406
2018-09-08T07:27:35.728Z,97411
2018-09-08T07:29:09.690Z,97411
2018-09-08T07:30:25.643Z,97409
2018-09-08T07:31:41.695Z,97408
2018-09-08T07:32:57.675Z,97407
2018-09-08T07:34:13.594Z,97405
2018-09-08T07:35:29.628Z,97410
2018-09-08T07:38:19.649Z,97407
2018-09-08T07:39:35.668Z,97413
2018-09-08T07:40:51.595Z,97415
2018-09-08T07:42:07.800Z,97422
2018-09-08T07:43:23.755Z,97415
2018-09-08T07:44:39.705Z,97416
2018-09-08T07:45:55.763Z,97411
2018-09-08T07:47:11.799Z,97411
2018-09-08T07:48:27.743Z,97407
2018-09-08T07:49:43.740Z,97413
2018-09-08T07:51:17.561Z,97413
2018-09-08T07:52:33.544Z,97411
2018-09-08T07:54:08.547Z,97412
2018-09-08T07:55:42.297Z,97414
2018-09-08T07:56:58.421Z,97413
2018-09-08T07:58:14.431Z,97413
2018-09-08T07:59:30.380Z,97412
2018-09-08T08:00:46.441Z,97415
2018-09-08T08:02:02.520Z,97412
2018-09-08T08:03:18.475Z,97414
2018-09-08T08:04:34.400Z,97416
2018-09-08T08:05:50.409Z,97421
2018-09-08T08:07:25.244Z,97421
2018-09-08T08:08:41.336Z,97424
2018-09-08T08:09:57.372Z,97422
2018-09-08T08:11:13.275Z,97421
2018-09-08T08:12:29.287Z,97417
2018-09-08T08:14:04.189Z,97419
2018-09-08T08:15:38.144Z,97423
2018-09-08T08:16:54.253Z,97426
2018-09-08T08:18:10.439Z,97424
2018-09-08T08:19:26.454Z,97426
2018-09-08T08:20:42.649Z,97426
2018-09-08T08:21:58.667Z,97426
2018-09-08T08:23:14.754Z,97427
2018-09-08T08:26:05.501Z,97425
2018-09-08T08:27:21.450Z,97428
2018-09-08T08:28:56.339Z,97434
2018-09-08T08:30:12.322Z,97427
2018-09-08T08:31:28.219Z,97423
2018-09-08T08:32:44.217Z,97425
2018-09-08T08:34:00.303Z,97430
2018-09-08T08:35:16.286Z,97428
2018-09-08T08:36:51.127Z,97426
2018-09-08T08:38:07.180Z,97425
2018-09-08T08:39:41.157Z,97424
2018-09-08T08:40:57.289Z,97420
2018-09-08T08:42:13.285Z,97423
2018-09-08T08:43:29.272Z,97418
2018-09-08T08:44:45.271Z,97420
2018-09-08T08:46:01.289Z,97420
2018-09-08T08:47:17.256Z,97421
2018-09-08T08:48:51.156Z,97423
2018-09-08T08:50:25.197Z,97422
2018-09-08T08:51:41.156Z,97421
2018-09-08T08:52:57.277Z,97416
2018-09-08T08:55:47.271Z,97422
2018-09-08T08:57:03.241Z,97421
2018-09-08T08:58:19.506Z,97418
2018-09-08T08:59:35.843Z,97416
2018-09-08T09:00:51.897Z,97420
2018-09-08T09:02:08.112Z,97417
2018-09-08T09:03:24.165Z,97418
2018-09-08T09:04:40.297Z,97421
2018-09-08T09:05:56.279Z,97419
2018-09-08T09:07:12.879Z,97422
2018-09-08T09:08:28.833Z,97426
2018-09-08T09:10:03.542Z,97421
2018-09-08T09:11:19.645Z,97416
2018-09-08T09:12:53.701Z,97415
2018-09-08T09:14:09.839Z,97417
2018-09-08T09:15:26.731Z,97417
2018-09-08T09:16:42.582Z,97417
2018-09-08T09:17:58.728Z,97416
2018-09-08T09:19:14.840Z,97418
2018-09-08T09:20:30.832Z,97420
2018-09-08T09:22:04.857Z,97420
2018-09-08T09:23:38.808Z,97416
2018-09-08T09:24:54.890Z,97414
2018-09-08T09:26:11.006Z,97410
2018-09-08T09:27:27.068Z,97409
2018-09-08T09:29:00.998Z,97409
2018-09-08T09:30:17.097Z,97405
2018-09-08T09:33:06.997Z,97402
2018-09-08T09:34:22.986Z,97403
2018-09-08T09:35:57.026Z,97408
2018-09-08T09:37:13.077Z,97407
2018-09-08T09:38:29.066Z,97406
2018-09-08T09:40:02.995Z,97403
2018-09-08T09:41:19.085Z,97400
2018-09-08T09:42:53.000Z,97400
2018-09-08T09:44:08.956Z,97400
2018-09-08T09:45:43.930Z,97406
2018-09-08T09:46:59.891Z,97406
2018-09-08T09:48:15.852Z,97408
2018-09-08T09:49:32.999Z,97408
2018-09-08T09:50:49.146Z,97404
2018-09-08T09:52:23.100Z,97410
2018-09-08T09:53:39.187Z,97403
2018-09-08T09:56:47.142Z,97402
2018-09-08T09:58:03.212Z,97396
2018-09-08T09:59:38.148Z,97397
2018-09-08T10:00:54.340Z,97391
2018-09-08T10:02:10.368Z,97393
2018-09-08T10:03:26.476Z,97395
2018-09-08T10:04:42.628Z,97398
2018-09-08T10:05:58.766Z,97390
2018-09-08T10:07:14.866Z,97394
2018-09-08T10:08:30.888Z,97394
2018-09-08T10:09:46.944Z,97392
2018-09-08T10:11:03.216Z,97391
2018-09-08T10:12:19.313Z,97400
2018-09-08T10:13:35.366Z,97396
2018-09-08T10:16:25.477Z,97392
2018-09-08T10:17:41.452Z,97397
2018-09-08T10:18:57.420Z,97389
2018-09-08T10:20:13.492Z,97395
2018-09-08T10:21:29.698Z,97391
2018-09-08T10:22:45.720Z,97396
2018-09-08T10:24:05.153Z,97390
2018-09-08T10:25:17.931Z,97386
2018-09-08T10:26:33.977Z,97389
2018-09-08T10:28:08.099Z,97379
2018-09-08T10:30:58.136Z,97389
2018-09-08T10:33:48.303Z,97386
2018-09-08T10:35:22.259Z,97384
2018-09-08T10:36:56.183Z,97382
2018-09-08T10:38:12.308Z,97382
2018-09-08T10:39:28.391Z,97384
2018-09-08T10:40:44.529Z,97381
2018-09-08T10:42:00.660Z,97384
2018-09-08T10:43:16.769Z,97380
2018-09-08T10:44:32.819Z,97379
2018-09-08T10:46:06.825Z,97383
2018-09-08T10:49:03.827Z,97382
2018-09-08T10:50:19.825Z,97379
2018-09-08T10:51:53.823Z,97381
2018-09-08T10:54:43.737Z,97380
2018-09-08T10:55:59.825Z,97381
2018-09-08T10:57:15.924Z,97380
2018-09-08T10:58:32.149Z,97376
2018-09-08T10:59:48.152Z,97375
2018-09-08T11:02:57.267Z,97370
2018-09-08T11:04:13.333Z,97364
2018-09-08T11:05:29.378Z,97366
2018-09-08T11:06:45.537Z,97363
2018-09-08T11:08:01.698Z,97362
2018-09-08T11:09:35.627Z,97368
2018-09-08T11:10:51.783Z,97363
2018-09-08T11:13:49.410Z,97365
2018-09-08T11:15:05.543Z,97361
2018-09-08T11:16:21.649Z,97362
2018-09-08T11:17:37.839Z,97362
2018-09-08T11:18:54.130Z,97359
2018-09-08T11:20:27.979Z,97361
2018-09-08T11:21:44.013Z,97357
2018-09-08T11:42:16.653Z,97341
2018-09-08T11:43:32.754Z,97342
2018-09-08T11:45:06.697Z,97342
2018-09-08T11:49:30.755Z,97335
2018-09-08T11:52:20.719Z,97335
2018-09-08T11:53:36.792Z,97341
2018-09-08T11:54:52.853Z,97335
2018-09-08T11:56:08.798Z,97336
2018-09-08T11:58:58.770Z,97337
2018-09-08T12:00:14.908Z,97329
2018-09-08T12:01:30.888Z,97331
2018-09-08T12:02:46.907Z,97333
2018-09-08T12:04:21.806Z,97326
2018-09-08T12:05:37.926Z,97325
2018-09-08T12:06:53.915Z,97323
2018-09-08T12:08:10.228Z,97320
2018-09-08T12:09:26.193Z,97318
2018-09-08T12:10:42.246Z,97316
2018-09-08T12:11:58.234Z,97317
2018-09-08T12:13:33.166Z,97315
2018-09-08T12:14:49.162Z,97315
2018-09-08T12:16:23.155Z,97316
2018-09-08T12:17:58.087Z,97314
2018-09-08T12:19:15.165Z,97315
2018-09-08T12:20:31.217Z,97315
2018-09-08T12:21:47.190Z,97318
2018-09-08T12:23:03.285Z,97315
2018-09-08T12:24:19.364Z,97318
2018-09-08T12:25:35.540Z,97313
2018-09-08T12:28:43.444Z,97309
2018-09-08T12:29:59.649Z,97310
2018-09-08T12:31:15.781Z,97304
2018-09-08T12:32:31.858Z,97308
2018-09-08T12:33:47.927Z,97308
2018-09-08T12:35:03.937Z,97307
2018-09-08T12:36:20.125Z,97309
2018-09-08T12:37:54.025Z,97309
2018-09-08T12:39:10.119Z,97306
2018-09-08T12:40:26.168Z,97313
2018-09-08T12:41:42.175Z,97309
2018-09-08T12:43:34.953Z,97310
2018-09-08T12:44:51.021Z,97309
2018-09-08T12:46:07.038Z,97309
2018-09-08T12:47:23.104Z,97308
2018-09-08T12:48:39.095Z,97305
2018-09-08T12:50:12.988Z,97306
2018-09-08T12:51:46.934Z,97305
2018-09-08T12:53:20.922Z,97301
2018-09-08T12:54:36.879Z,97299
2018-09-08T12:55:52.889Z,97298
2018-09-08T12:57:08.938Z,97301
2018-09-08T12:58:25.021Z,97296
2018-09-08T12:59:41.010Z,97298
2018-09-08T13:00:57.057Z,97301
2018-09-08T13:02:13.201Z,97293
2018-09-08T13:03:29.303Z,97298
2018-09-08T13:04:45.435Z,97297
2018-09-08T13:06:01.473Z,97292
2018-09-08T13:07:17.500Z,97295
2018-09-08T13:08:33.499Z,97292
2018-09-08T13:09:49.650Z,97296
2018-09-08T13:11:05.748Z,97301
2018-09-08T13:12:21.991Z,97297
2018-09-08T13:13:38.034Z,97299
2018-09-08T13:14:54.029Z,97295
2018-09-08T13:16:10.084Z,97293
2018-09-08T13:17:43.996Z,97295
2018-09-08T13:19:00.010Z,97292
2018-09-08T13:20:16.071Z,97293
2018-09-08T13:21:32.152Z,97285
2018-09-08T13:22:48.096Z,97287
2018-09-08T13:24:04.155Z,97284
2018-09-08T13:25:20.042Z,97287
2018-09-08T13:26:54.014Z,97284
2018-09-08T13:29:43.989Z,97281
2018-09-08T13:30:59.870Z,97272
2018-09-08T13:32:15.863Z,97269
2018-09-08T13:33:31.884Z,97269
2018-09-08T13:36:21.757Z,97262
2018-09-08T13:37:37.822Z,97263
2018-09-08T13:38:53.850Z,97262
2018-09-08T13:40:28.824Z,97260
2018-09-08T13:41:44.994Z,97260
2018-09-08T13:44:35.062Z,97256
2018-09-08T13:45:51.117Z,97261
2018-09-08T13:47:07.303Z,97260
2018-09-08T13:48:41.219Z,97256
2018-09-08T13:49:58.249Z,97254
2018-09-08T13:51:32.303Z,97248
2018-09-08T13:52:48.361Z,97252
2018-09-08T13:54:22.223Z,97241
2018-09-08T13:55:38.160Z,97242
2018-09-08T13:56:54.289Z,97239
2018-09-08T13:58:10.353Z,97238
2018-09-08T13:59:44.302Z,97233
2018-09-08T14:02:34.410Z,97233
2018-09-08T14:03:50.517Z,97231
2018-09-08T14:05:06.591Z,97230
2018-09-08T14:06:22.573Z,97232
2018-09-08T14:07:56.522Z,97230
2018-09-08T14:09:12.760Z,97233
2018-09-08T14:10:46.652Z,97233
2018-09-08T14:12:02.597Z,97236
2018-09-08T14:13:18.591Z,97234
2018-09-08T14:14:34.686Z,97232
2018-09-08T14:16:08.563Z,97231
2018-09-08T14:17:24.567Z,97232
2018-09-08T14:18:40.560Z,97228
2018-09-08T14:19:56.587Z,97234
2018-09-08T14:21:31.470Z,97234
2018-09-08T14:22:47.469Z,97237
2018-09-08T14:25:37.492Z,97237
2018-09-08T14:26:53.509Z,97235
2018-09-08T14:28:09.535Z,97233
2018-09-08T14:29:25.620Z,97240
2018-09-08T14:30:41.583Z,97232
2018-09-08T14:31:57.673Z,97235
2018-09-08T14:33:13.660Z,97232
2018-09-08T14:34:29.757Z,97232
2018-09-08T14:37:19.761Z,97235
2018-09-08T14:38:35.735Z,97231
2018-09-08T14:39:51.918Z,97237
2018-09-08T14:41:07.961Z,97236
2018-09-08T14:42:23.990Z,97237
2018-09-08T14:43:40.065Z,97240
2018-09-08T14:44:56.063Z,97236
2018-09-08T14:46:12.046Z,97240
2018-09-08T14:47:28.253Z,97239
2018-09-08T14:48:44.267Z,97242
2018-09-08T14:50:00.325Z,97244
2018-09-08T14:51:16.283Z,97246
2018-09-08T14:52:32.287Z,97249
2018-09-08T14:53:48.332Z,97256
2018-09-08T14:55:04.347Z,97260
2018-09-08T14:56:20.305Z,97272
2018-09-08T14:57:36.267Z,97276
2018-09-08T14:58:52.271Z,97283
2018-09-08T15:00:08.261Z,97287
2018-09-08T15:01:24.286Z,97286
2018-09-08T15:02:40.326Z,97292
2018-09-08T15:03:56.375Z,97287
2018-09-08T15:05:12.430Z,97291
2018-09-08T15:06:28.444Z,97282
2018-09-08T15:07:44.421Z,97283
2018-09-08T15:09:00.384Z,97291
2018-09-08T15:10:16.452Z,97293
2018-09-08T15:13:06.397Z,97296
2018-09-08T15:14:22.495Z,97298
2018-09-08T15:15:38.666Z,97292
2018-09-08T15:16:54.643Z,97300
2018-09-08T15:18:10.611Z,97302
2018-09-08T15:19:26.639Z,97305
2018-09-08T15:21:00.629Z,97308
2018-09-08T15:22:16.590Z,97304
2018-09-08T15:23:32.681Z,97305
2018-09-08T15:24:48.731Z,97306
2018-09-08T15:26:04.848Z,97307
2018-09-08T15:27:20.907Z,97303
2018-09-08T15:28:36.931Z,97299
2018-09-08T15:29:53.046Z,97308
2018-09-08T15:31:09.085Z,97280
2018-09-08T15:32:25.081Z,97251
2018-09-08T15:33:41.205Z,97244
2018-09-08T15:34:57.193Z,97244
2018-09-08T15:36:13.419Z,97248
2018-09-08T15:37:29.429Z,97249
2018-09-08T15:38:45.504Z,97245
2018-09-08T15:40:01.628Z,97243
2018-09-08T15:41:17.696Z,97240
2018-09-08T15:42:33.669Z,97244
2018-09-08T15:43:49.683Z,97245
2018-09-08T15:45:24.652Z,97249
2018-09-08T15:46:40.666Z,97254
2018-09-08T15:47:56.690Z,97252
2018-09-08T15:49:12.731Z,97255
2018-09-08T15:50:28.713Z,97254
2018-09-08T15:51:44.886Z,97250
2018-09-08T15:53:18.731Z,97257
2018-09-08T15:54:52.598Z,97260
2018-09-08T15:56:08.585Z,97263
2018-09-08T15:57:24.769Z,97259
2018-09-08T15:58:40.960Z,97257
2018-09-08T15:59:56.775Z,97257
2018-09-08T16:01:12.804Z,97255
2018-09-08T16:02:28.800Z,97256
2018-09-08T16:03:44.818Z,97257
2018-09-08T16:05:00.779Z,97258
2018-09-08T16:06:16.899Z,97257
2018-09-08T16:07:32.914Z,97259
2018-09-08T16:08:48.906Z,97258
2018-09-08T16:10:05.006Z,97256
2018-09-08T16:11:20.958Z,97260
2018-09-08T16:12:37.231Z,97263
2018-09-08T16:13:53.222Z,97263
2018-09-08T16:17:01.979Z,97260
2018-09-08T16:18:18.125Z,97265
2018-09-08T16:19:34.216Z,97263
2018-09-08T16:21:08.073Z,97261
2018-09-08T16:22:24.059Z,97263
2018-09-08T16:23:40.071Z,97262
2018-09-08T16:24:56.069Z,97263
2018-09-08T16:26:47.861Z,97264
2018-09-08T16:28:03.885Z,97261
2018-09-08T16:29:37.845Z,97260
2018-09-08T16:31:12.673Z,97264
2018-09-08T16:32:28.767Z,97264
2018-09-08T16:33:44.874Z,97260
2018-09-08T16:36:41.777Z,97264
2018-09-08T16:37:57.809Z,97263
2018-09-08T16:39:13.845Z,97262
2018-09-08T17:05:03.567Z,97264
2018-09-08T17:06:19.503Z,97267
2018-09-08T17:07:35.652Z,97267
2018-09-08T17:08:51.675Z,97265
2018-09-08T17:10:07.673Z,97266
2018-09-08T17:11:42.554Z,97285
2018-09-08T17:12:58.544Z,97283
2018-09-08T17:14:14.501Z,97278
2018-09-08T17:15:30.513Z,97279
2018-09-08T17:16:46.725Z,97280
2018-09-08T17:18:02.746Z,97275
2018-09-08T17:19:18.808Z,97276
2018-09-08T17:22:08.808Z,97268
2018-09-08T17:23:42.713Z,97268
2018-09-08T17:24:58.711Z,97273
2018-09-08T17:26:14.777Z,97274
2018-09-08T17:27:30.759Z,97276
2018-09-08T17:28:46.880Z,97276
2018-09-08T17:30:03.309Z,97272
2018-09-08T17:31:19.624Z,97276
2018-09-08T17:32:35.599Z,97272
2018-09-08T17:34:09.649Z,97278
2018-09-08T17:35:25.697Z,97279
2018-09-08T17:36:41.860Z,97279
2018-09-08T17:37:57.908Z,97278
2018-09-08T17:39:13.973Z,97282
2018-09-08T17:40:30.045Z,97281
2018-09-08T17:41:46.060Z,97278
2018-09-08T17:43:03.047Z,97283
2018-09-08T17:44:19.064Z,97280
2018-09-08T17:45:35.288Z,97281
2018-09-08T17:46:51.329Z,97282
2018-09-08T17:48:07.404Z,97282
2018-09-08T17:49:41.401Z,97282
2018-09-08T17:50:57.571Z,97283
2018-09-08T17:52:13.686Z,97278
2018-09-08T17:53:29.845Z,97279
2018-09-08T17:55:04.727Z,97282
2018-09-08T17:56:20.991Z,97283
2018-09-08T17:57:37.083Z,97285
2018-09-08T17:58:54.728Z,97292
2018-09-08T18:00:28.618Z,97288
2018-09-08T18:01:44.620Z,97286
2018-09-08T18:03:00.767Z,97292
2018-09-08T18:04:16.933Z,97289
2018-09-08T18:05:32.914Z,97286
2018-09-08T18:06:49.075Z,97287
2018-09-08T18:08:05.247Z,97286
2018-09-08T18:09:21.636Z,97286
2018-09-08T18:10:38.270Z,97289
2018-09-08T18:11:54.321Z,97292
2018-09-08T18:13:29.180Z,97290
2018-09-08T18:14:45.144Z,97294
2018-09-08T18:16:19.086Z,97296
2018-09-08T18:17:53.051Z,97294
2018-09-08T18:19:09.067Z,97292
2018-09-08T18:20:25.124Z,97297
2018-09-08T18:21:59.098Z,97295
2018-09-08T18:23:33.183Z,97299
2018-09-08T18:24:49.188Z,97299
2018-09-08T18:26:24.447Z,97304
2018-09-08T18:27:40.531Z,97302
2018-09-08T18:29:14.512Z,97304
2018-09-08T18:30:30.638Z,97301
2018-09-08T18:31:46.686Z,97300
2018-09-08T18:33:02.742Z,97300